sensor_id;sensor_type;location;lat;lon;timestamp;temperature;humidity
83102;SHT31;72973;51.784;4.660;2024-03-02T00:00:30;8.09;83.36
83102;SHT31;72973;51.784;4.660;2024-03-02T00:02:56;8.02;83.56
83102;SHT31;72973;51.784;4.660;2024-03-02T00:05:23;8.07;83.54
83102;SHT31;72973;51.784;4.660;2024-03-02T00:07:59;8.09;83.46
83102;SHT31;72973;51.784;4.660;2024-03-02T00:10:37;8.01;83.52
83102;SHT31;72973;51.784;4.660;2024-03-02T00:13:07;8.10;83.35
83102;SHT31;72973;51.784;4.660;2024-03-02T00:15:42;8.07;83.37
83102;SHT31;72973;51.784;4.660;2024-03-02T00:18:13;8.03;83.53
83102;SHT31;72973;51.784;4.660;2024-03-02T00:20:41;8.02;83.59
83102;SHT31;72973;51.784;4.660;2024-03-02T00:23:09;8.03;83.49
83102;SHT31;72973;51.784;4.660;2024-03-02T00:25:52;7.99;83.68
83102;SHT31;72973;51.784;4.660;2024-03-02T00:28:23;8.01;83.85
83102;SHT31;72973;51.784;4.660;2024-03-02T00:31:05;7.95;84.16
83102;SHT31;72973;51.784;4.660;2024-03-02T00:33:34;7.98;83.96
83102;SHT31;72973;51.784;4.660;2024-03-02T00:36:03;7.92;83.92
83102;SHT31;72973;51.784;4.660;2024-03-02T00:38:30;7.92;83.93
83102;SHT31;72973;51.784;4.660;2024-03-02T00:41:04;7.86;84.12
83102;SHT31;72973;51.784;4.660;2024-03-02T00:43:41;7.85;83.76
83102;SHT31;72973;51.784;4.660;2024-03-02T00:46:14;7.93;83.72
83102;SHT31;72973;51.784;4.660;2024-03-02T00:51:37;7.96;83.35
83102;SHT31;72973;51.784;4.660;2024-03-02T00:54:05;8.01;83.38
83102;SHT31;72973;51.784;4.660;2024-03-02T00:56:33;8.01;83.34
83102;SHT31;72973;51.784;4.660;2024-03-02T00:59:01;7.96;83.29
83102;SHT31;72973;51.784;4.660;2024-03-02T01:01:27;7.95;83.61
83102;SHT31;72973;51.784;4.660;2024-03-02T01:03:53;7.89;83.47
83102;SHT31;72973;51.784;4.660;2024-03-02T01:06:20;7.84;83.85
83102;SHT31;72973;51.784;4.660;2024-03-02T01:08:47;7.88;83.85
83102;SHT31;72973;51.784;4.660;2024-03-02T01:11:17;7.91;83.89
83102;SHT31;72973;51.784;4.660;2024-03-02T01:13:46;7.89;83.59
83102;SHT31;72973;51.784;4.660;2024-03-02T01:16:13;7.91;83.54
83102;SHT31;72973;51.784;4.660;2024-03-02T01:18:40;7.89;83.80
83102;SHT31;72973;51.784;4.660;2024-03-02T01:21:06;7.81;83.62
83102;SHT31;72973;51.784;4.660;2024-03-02T01:23:33;7.85;83.54
83102;SHT31;72973;51.784;4.660;2024-03-02T01:25:59;7.77;83.73
83102;SHT31;72973;51.784;4.660;2024-03-02T01:28:26;7.65;83.70
83102;SHT31;72973;51.784;4.660;2024-03-02T01:30:52;7.64;83.51
83102;SHT31;72973;51.784;4.660;2024-03-02T01:33:20;7.63;83.47
83102;SHT31;72973;51.784;4.660;2024-03-02T01:35:47;7.67;83.53
83102;SHT31;72973;51.784;4.660;2024-03-02T01:38:16;7.68;83.50
83102;SHT31;72973;51.784;4.660;2024-03-02T01:40:42;7.77;83.33
83102;SHT31;72973;51.784;4.660;2024-03-02T01:43:10;7.82;83.20
83102;SHT31;72973;51.784;4.660;2024-03-02T01:45:37;7.72;83.04
83102;SHT31;72973;51.784;4.660;2024-03-02T01:48:05;7.72;83.42
83102;SHT31;72973;51.784;4.660;2024-03-02T01:50:34;7.70;83.54
83102;SHT31;72973;51.784;4.660;2024-03-02T01:53:01;7.72;83.48
83102;SHT31;72973;51.784;4.660;2024-03-02T01:55:29;7.64;83.48
83102;SHT31;72973;51.784;4.660;2024-03-02T01:57:56;7.58;83.71
83102;SHT31;72973;51.784;4.660;2024-03-02T02:00:24;7.65;83.36
83102;SHT31;72973;51.784;4.660;2024-03-02T02:02:53;7.71;83.44
83102;SHT31;72973;51.784;4.660;2024-03-02T02:05:20;7.77;82.95
83102;SHT31;72973;51.784;4.660;2024-03-02T02:07:47;7.65;83.17
83102;SHT31;72973;51.784;4.660;2024-03-02T02:10:13;7.67;83.13
83102;SHT31;72973;51.784;4.660;2024-03-02T02:12:40;7.71;83.16
83102;SHT31;72973;51.784;4.660;2024-03-02T02:15:26;7.84;82.70
83102;SHT31;72973;51.784;4.660;2024-03-02T02:17:54;7.79;83.01
83102;SHT31;72973;51.784;4.660;2024-03-02T02:20:20;7.77;82.96
83102;SHT31;72973;51.784;4.660;2024-03-02T02:22:57;7.72;83.24
83102;SHT31;72973;51.784;4.660;2024-03-02T02:25:25;7.72;83.17
83102;SHT31;72973;51.784;4.660;2024-03-02T02:27:52;7.78;83.03
83102;SHT31;72973;51.784;4.660;2024-03-02T02:30:23;7.81;82.92
83102;SHT31;72973;51.784;4.660;2024-03-02T02:32:50;7.78;82.84
83102;SHT31;72973;51.784;4.660;2024-03-02T02:35:17;7.79;82.63
83102;SHT31;72973;51.784;4.660;2024-03-02T02:37:45;7.82;82.48
83102;SHT31;72973;51.784;4.660;2024-03-02T02:40:13;7.81;82.51
83102;SHT31;72973;51.784;4.660;2024-03-02T02:42:39;7.84;82.34
83102;SHT31;72973;51.784;4.660;2024-03-02T02:45:06;7.86;82.17
83102;SHT31;72973;51.784;4.660;2024-03-02T02:47:34;7.89;82.13
83102;SHT31;72973;51.784;4.660;2024-03-02T02:50:03;7.85;82.11
83102;SHT31;72973;51.784;4.660;2024-03-02T02:52:33;7.81;82.16
83102;SHT31;72973;51.784;4.660;2024-03-02T02:54:59;7.72;82.31
83102;SHT31;72973;51.784;4.660;2024-03-02T02:57:26;7.72;82.24
83102;SHT31;72973;51.784;4.660;2024-03-02T02:59:52;7.75;82.24
83102;SHT31;72973;51.784;4.660;2024-03-02T03:02:18;7.82;82.04
83102;SHT31;72973;51.784;4.660;2024-03-02T03:04:45;7.84;82.10
83102;SHT31;72973;51.784;4.660;2024-03-02T03:07:11;7.89;81.88
83102;SHT31;72973;51.784;4.660;2024-03-02T03:09:38;7.92;81.98
83102;SHT31;72973;51.784;4.660;2024-03-02T03:12:07;7.88;81.96
83102;SHT31;72973;51.784;4.660;2024-03-02T03:14:33;7.89;81.64
83102;SHT31;72973;51.784;4.660;2024-03-02T03:17:00;7.95;81.38
83102;SHT31;72973;51.784;4.660;2024-03-02T03:19:27;7.88;81.35
83102;SHT31;72973;51.784;4.660;2024-03-02T03:21:53;7.77;81.36
83102;SHT31;72973;51.784;4.660;2024-03-02T03:24:19;7.78;81.25
83102;SHT31;72973;51.784;4.660;2024-03-02T03:26:46;7.60;81.36
83102;SHT31;72973;51.784;4.660;2024-03-02T03:29:12;7.58;81.55
83102;SHT31;72973;51.784;4.660;2024-03-02T03:31:39;7.61;81.65
83102;SHT31;72973;51.784;4.660;2024-03-02T03:34:05;7.58;81.72
83102;SHT31;72973;51.784;4.660;2024-03-02T03:36:31;7.54;81.58
83102;SHT31;72973;51.784;4.660;2024-03-02T03:39:00;7.51;81.71
83102;SHT31;72973;51.784;4.660;2024-03-02T03:41:29;7.54;81.48
83102;SHT31;72973;51.784;4.660;2024-03-02T03:43:55;7.51;81.69
83102;SHT31;72973;51.784;4.660;2024-03-02T03:46:22;7.51;81.85
83102;SHT31;72973;51.784;4.660;2024-03-02T03:48:48;7.55;81.80
83102;SHT31;72973;51.784;4.660;2024-03-02T03:51:15;7.60;81.67
83102;SHT31;72973;51.784;4.660;2024-03-02T03:53:41;7.65;81.59
83102;SHT31;72973;51.784;4.660;2024-03-02T03:56:07;7.64;81.61
83102;SHT31;72973;51.784;4.660;2024-03-02T03:58:34;7.67;81.39
83102;SHT31;72973;51.784;4.660;2024-03-02T04:01:00;7.63;81.40
83102;SHT31;72973;51.784;4.660;2024-03-02T04:03:27;7.58;81.33
83102;SHT31;72973;51.784;4.660;2024-03-02T04:05:53;7.53;81.55
83102;SHT31;72973;51.784;4.660;2024-03-02T04:08:19;7.58;81.61
83102;SHT31;72973;51.784;4.660;2024-03-02T04:10:46;7.61;81.47
83102;SHT31;72973;51.784;4.660;2024-03-02T04:13:12;7.55;81.62
83102;SHT31;72973;51.784;4.660;2024-03-02T04:15:39;7.51;81.44
83102;SHT31;72973;51.784;4.660;2024-03-02T04:18:06;7.51;81.55
83102;SHT31;72973;51.784;4.660;2024-03-02T04:20:32;7.55;81.38
83102;SHT31;72973;51.784;4.660;2024-03-02T04:22:59;7.53;81.34
83102;SHT31;72973;51.784;4.660;2024-03-02T04:25:25;7.50;81.31
83102;SHT31;72973;51.784;4.660;2024-03-02T04:27:52;7.36;81.36
83102;SHT31;72973;51.784;4.660;2024-03-02T04:30:18;7.42;81.44
83102;SHT31;72973;51.784;4.660;2024-03-02T04:32:44;7.46;81.46
83102;SHT31;72973;51.784;4.660;2024-03-02T04:35:12;7.46;81.23
83102;SHT31;72973;51.784;4.660;2024-03-02T04:37:39;7.51;80.94
83102;SHT31;72973;51.784;4.660;2024-03-02T04:40:06;7.53;80.90
83102;SHT31;72973;51.784;4.660;2024-03-02T04:42:35;7.47;80.92
83102;SHT31;72973;51.784;4.660;2024-03-02T04:45:02;7.54;80.72
83102;SHT31;72973;51.784;4.660;2024-03-02T04:47:29;7.57;80.75
83102;SHT31;72973;51.784;4.660;2024-03-02T04:49:55;7.60;80.73
83102;SHT31;72973;51.784;4.660;2024-03-02T04:52:22;7.57;80.61
83102;SHT31;72973;51.784;4.660;2024-03-02T04:54:48;7.53;80.59
83102;SHT31;72973;51.784;4.660;2024-03-02T04:57:33;7.54;80.59
83102;SHT31;72973;51.784;4.660;2024-03-02T04:59:59;7.46;80.59
83102;SHT31;72973;51.784;4.660;2024-03-02T05:02:26;7.48;80.86
83102;SHT31;72973;51.784;4.660;2024-03-02T05:04:53;7.43;80.62
83102;SHT31;72973;51.784;4.660;2024-03-02T05:07:19;7.47;80.56
83102;SHT31;72973;51.784;4.660;2024-03-02T05:09:45;7.50;80.46
83102;SHT31;72973;51.784;4.660;2024-03-02T05:12:12;7.44;80.45
83102;SHT31;72973;51.784;4.660;2024-03-02T05:14:56;7.42;80.46
83102;SHT31;72973;51.784;4.660;2024-03-02T05:17:23;7.48;80.60
83102;SHT31;72973;51.784;4.660;2024-03-02T05:19:49;7.53;80.22
83102;SHT31;72973;51.784;4.660;2024-03-02T05:22:16;7.50;80.33
83102;SHT31;72973;51.784;4.660;2024-03-02T05:24:42;7.55;80.21
83102;SHT31;72973;51.784;4.660;2024-03-02T05:27:09;7.58;80.11
83102;SHT31;72973;51.784;4.660;2024-03-02T05:29:35;7.61;80.03
83102;SHT31;72973;51.784;4.660;2024-03-02T05:32:02;7.63;79.83
83102;SHT31;72973;51.784;4.660;2024-03-02T05:34:28;7.67;79.74
83102;SHT31;72973;51.784;4.660;2024-03-02T05:36:55;7.68;79.75
83102;SHT31;72973;51.784;4.660;2024-03-02T05:39:22;7.67;79.79
83102;SHT31;72973;51.784;4.660;2024-03-02T05:41:48;7.70;79.76
83102;SHT31;72973;51.784;4.660;2024-03-02T05:44:14;7.67;79.73
83102;SHT31;72973;51.784;4.660;2024-03-02T05:46:41;7.71;79.95
83102;SHT31;72973;51.784;4.660;2024-03-02T05:49:08;7.65;79.76
83102;SHT31;72973;51.784;4.660;2024-03-02T05:51:35;7.67;80.09
83102;SHT31;72973;51.784;4.660;2024-03-02T05:54:02;7.64;79.98
83102;SHT31;72973;51.784;4.660;2024-03-02T05:56:29;7.65;79.84
83102;SHT31;72973;51.784;4.660;2024-03-02T05:58:55;7.68;79.80
83102;SHT31;72973;51.784;4.660;2024-03-02T06:01:41;7.61;79.92
83102;SHT31;72973;51.784;4.660;2024-03-02T06:04:10;7.47;80.07
83102;SHT31;72973;51.784;4.660;2024-03-02T06:06:40;7.48;80.30
83102;SHT31;72973;51.784;4.660;2024-03-02T06:09:07;7.50;79.95
83102;SHT31;72973;51.784;4.660;2024-03-02T06:11:34;7.50;79.72
83102;SHT31;72973;51.784;4.660;2024-03-02T06:14:00;7.34;79.55
83102;SHT31;72973;51.784;4.660;2024-03-02T06:16:27;7.31;79.56
83102;SHT31;72973;51.784;4.660;2024-03-02T06:18:53;7.27;79.46
83102;SHT31;72973;51.784;4.660;2024-03-02T06:21:20;7.24;79.56
83102;SHT31;72973;51.784;4.660;2024-03-02T06:23:46;7.22;79.66
83102;SHT31;72973;51.784;4.660;2024-03-02T06:26:12;7.24;79.64
83102;SHT31;72973;51.784;4.660;2024-03-02T06:28:39;7.34;79.38
83102;SHT31;72973;51.784;4.660;2024-03-02T06:31:05;7.40;79.02
83102;SHT31;72973;51.784;4.660;2024-03-02T06:33:32;7.46;78.84
83102;SHT31;72973;51.784;4.660;2024-03-02T06:35:58;7.50;78.75
83102;SHT31;72973;51.784;4.660;2024-03-02T06:38:24;7.54;78.43
83102;SHT31;72973;51.784;4.660;2024-03-02T06:40:51;7.50;77.95
83102;SHT31;72973;51.784;4.660;2024-03-02T06:43:21;7.54;78.18
83102;SHT31;72973;51.784;4.660;2024-03-02T06:45:50;7.46;78.30
83102;SHT31;72973;51.784;4.660;2024-03-02T06:48:18;7.42;78.48
83102;SHT31;72973;51.784;4.660;2024-03-02T06:50:47;7.40;78.46
83102;SHT31;72973;51.784;4.660;2024-03-02T06:53:16;7.24;78.85
83102;SHT31;72973;51.784;4.660;2024-03-02T06:55:44;7.22;79.02
83102;SHT31;72973;51.784;4.660;2024-03-02T06:58:11;7.17;79.06
83102;SHT31;72973;51.784;4.660;2024-03-02T07:00:38;7.16;79.08
83102;SHT31;72973;51.784;4.660;2024-03-02T07:03:04;7.13;79.17
83102;SHT31;72973;51.784;4.660;2024-03-02T07:05:31;7.19;79.28
83102;SHT31;72973;51.784;4.660;2024-03-02T07:07:57;7.16;79.18
83102;SHT31;72973;51.784;4.660;2024-03-02T07:10:23;7.16;79.24
83102;SHT31;72973;51.784;4.660;2024-03-02T07:12:50;7.07;79.49
83102;SHT31;72973;51.784;4.660;2024-03-02T07:15:16;7.09;79.55
83102;SHT31;72973;51.784;4.660;2024-03-02T07:17:55;7.15;79.64
83102;SHT31;72973;51.784;4.660;2024-03-02T07:20:21;7.13;79.84
83102;SHT31;72973;51.784;4.660;2024-03-02T07:22:49;7.19;79.73
83102;SHT31;72973;51.784;4.660;2024-03-02T07:25:15;7.28;79.76
83102;SHT31;72973;51.784;4.660;2024-03-02T07:27:42;7.38;79.78
83102;SHT31;72973;51.784;4.660;2024-03-02T07:30:13;7.53;79.67
83102;SHT31;72973;51.784;4.660;2024-03-02T07:32:39;7.55;79.45
83102;SHT31;72973;51.784;4.660;2024-03-02T07:35:08;7.54;79.39
83102;SHT31;72973;51.784;4.660;2024-03-02T07:37:34;7.55;79.27
83102;SHT31;72973;51.784;4.660;2024-03-02T07:40:01;7.67;79.43
83102;SHT31;72973;51.784;4.660;2024-03-02T07:42:27;7.68;78.84
83102;SHT31;72973;51.784;4.660;2024-03-02T07:44:53;7.72;78.83
83102;SHT31;72973;51.784;4.660;2024-03-02T07:47:20;7.75;78.69
83102;SHT31;72973;51.784;4.660;2024-03-02T07:49:46;7.75;79.01
83102;SHT31;72973;51.784;4.660;2024-03-02T07:52:13;7.77;78.85
83102;SHT31;72973;51.784;4.660;2024-03-02T07:54:39;7.89;78.82
83102;SHT31;72973;51.784;4.660;2024-03-02T07:57:09;7.85;78.36
83102;SHT31;72973;51.784;4.660;2024-03-02T07:59:37;7.86;78.35
83102;SHT31;72973;51.784;4.660;2024-03-02T08:02:03;7.91;78.41
83102;SHT31;72973;51.784;4.660;2024-03-02T08:04:30;7.93;77.79
83102;SHT31;72973;51.784;4.660;2024-03-02T08:06:56;7.95;78.07
83102;SHT31;72973;51.784;4.660;2024-03-02T08:09:23;8.06;78.40
83102;SHT31;72973;51.784;4.660;2024-03-02T08:11:49;8.25;78.04
83102;SHT31;72973;51.784;4.660;2024-03-02T08:14:16;8.22;76.98
83102;SHT31;72973;51.784;4.660;2024-03-02T08:16:42;8.30;76.66
83102;SHT31;72973;51.784;4.660;2024-03-02T08:19:09;8.26;76.45
83102;SHT31;72973;51.784;4.660;2024-03-02T08:21:36;8.28;76.45
83102;SHT31;72973;51.784;4.660;2024-03-02T08:24:03;8.25;76.33
83102;SHT31;72973;51.784;4.660;2024-03-02T08:26:30;8.33;76.48
83102;SHT31;72973;51.784;4.660;2024-03-02T08:28:58;8.46;77.03
83102;SHT31;72973;51.784;4.660;2024-03-02T08:31:25;8.46;75.98
83102;SHT31;72973;51.784;4.660;2024-03-02T08:33:51;8.51;76.14
83102;SHT31;72973;51.784;4.660;2024-03-02T08:36:18;8.68;76.73
83102;SHT31;72973;51.784;4.660;2024-03-02T08:38:49;8.72;75.13
83102;SHT31;72973;51.784;4.660;2024-03-02T08:41:15;8.71;75.92
83102;SHT31;72973;51.784;4.660;2024-03-02T08:43:42;8.75;75.00
83102;SHT31;72973;51.784;4.660;2024-03-02T08:46:09;8.74;74.71
83102;SHT31;72973;51.784;4.660;2024-03-02T08:48:36;8.87;74.60
83102;SHT31;72973;51.784;4.660;2024-03-02T08:51:08;8.88;74.17
83102;SHT31;72973;51.784;4.660;2024-03-02T08:53:36;8.98;74.07
83102;SHT31;72973;51.784;4.660;2024-03-02T08:56:04;9.09;73.63
83102;SHT31;72973;51.784;4.660;2024-03-02T08:58:32;9.09;74.53
83102;SHT31;72973;51.784;4.660;2024-03-02T09:00:58;9.27;74.17
83102;SHT31;72973;51.784;4.660;2024-03-02T09:03:25;9.36;72.93
83102;SHT31;72973;51.784;4.660;2024-03-02T09:05:54;9.40;73.69
83102;SHT31;72973;51.784;4.660;2024-03-02T09:08:21;9.51;73.13
83102;SHT31;72973;51.784;4.660;2024-03-02T09:10:50;9.64;72.19
83102;SHT31;72973;51.784;4.660;2024-03-02T09:13:16;9.81;71.90
83102;SHT31;72973;51.784;4.660;2024-03-02T09:15:43;10.04;71.59
83102;SHT31;72973;51.784;4.660;2024-03-02T09:18:10;10.23;70.53
83102;SHT31;72973;51.784;4.660;2024-03-02T09:20:37;10.31;69.99
83102;SHT31;72973;51.784;4.660;2024-03-02T09:23:03;10.50;69.64
83102;SHT31;72973;51.784;4.660;2024-03-02T09:25:30;10.76;69.13
83102;SHT31;72973;51.784;4.660;2024-03-02T09:27:56;10.61;68.98
83102;SHT31;72973;51.784;4.660;2024-03-02T09:30:26;10.85;68.67
83102;SHT31;72973;51.784;4.660;2024-03-02T09:32:52;10.81;67.24
83102;SHT31;72973;51.784;4.660;2024-03-02T09:35:19;10.93;67.66
83102;SHT31;72973;51.784;4.660;2024-03-02T09:37:46;10.77;67.99
83102;SHT31;72973;51.784;4.660;2024-03-02T09:40:13;10.76;67.79
83102;SHT31;72973;51.784;4.660;2024-03-02T09:42:41;10.59;67.82
83102;SHT31;72973;51.784;4.660;2024-03-02T09:45:09;10.79;67.72
83102;SHT31;72973;51.784;4.660;2024-03-02T09:47:36;10.83;68.34
83102;SHT31;72973;51.784;4.660;2024-03-02T09:50:03;11.12;66.80
83102;SHT31;72973;51.784;4.660;2024-03-02T09:52:30;11.29;66.37
83102;SHT31;72973;51.784;4.660;2024-03-02T09:54:57;11.32;66.40
83102;SHT31;72973;51.784;4.660;2024-03-02T09:57:24;11.27;65.85
83102;SHT31;72973;51.784;4.660;2024-03-02T09:59:50;11.46;65.42
83102;SHT31;72973;51.784;4.660;2024-03-02T10:02:16;11.77;63.89
83102;SHT31;72973;51.784;4.660;2024-03-02T10:04:43;11.59;64.29
83102;SHT31;72973;51.784;4.660;2024-03-02T10:07:18;11.72;65.12
83102;SHT31;72973;51.784;4.660;2024-03-02T10:09:48;12.55;63.30
83102;SHT31;72973;51.784;4.660;2024-03-02T10:12:17;13.31;60.96
83102;SHT31;72973;51.784;4.660;2024-03-02T10:14:44;13.57;59.48
83102;SHT31;72973;51.784;4.660;2024-03-02T10:17:13;13.74;58.64
83102;SHT31;72973;51.784;4.660;2024-03-02T10:19:40;13.86;57.53
83102;SHT31;72973;51.784;4.660;2024-03-02T10:22:08;14.13;57.22
83102;SHT31;72973;51.784;4.660;2024-03-02T10:24:42;14.17;57.12
83102;SHT31;72973;51.784;4.660;2024-03-02T10:27:16;14.52;55.67
83102;SHT31;72973;51.784;4.660;2024-03-02T10:29:46;14.30;55.79
83102;SHT31;72973;51.784;4.660;2024-03-02T10:32:16;14.64;55.42
83102;SHT31;72973;51.784;4.660;2024-03-02T10:34:47;14.65;54.67
83102;SHT31;72973;51.784;4.660;2024-03-02T10:37:15;14.75;54.46
83102;SHT31;72973;51.784;4.660;2024-03-02T10:39:46;14.82;53.66
83102;SHT31;72973;51.784;4.660;2024-03-02T10:42:14;14.79;53.64
83102;SHT31;72973;51.784;4.660;2024-03-02T10:44:41;14.79;53.37
83102;SHT31;72973;51.784;4.660;2024-03-02T10:47:12;14.24;53.60
83102;SHT31;72973;51.784;4.660;2024-03-02T10:49:42;14.40;52.49
83102;SHT31;72973;51.784;4.660;2024-03-02T10:52:17;14.60;52.27
83102;SHT31;72973;51.784;4.660;2024-03-02T10:54:44;14.92;52.55
83102;SHT31;72973;51.784;4.660;2024-03-02T10:57:11;15.51;50.68
83102;SHT31;72973;51.784;4.660;2024-03-02T10:59:56;16.15;50.39
83102;SHT31;72973;51.784;4.660;2024-03-02T11:02:29;16.30;50.74
83102;SHT31;72973;51.784;4.660;2024-03-02T11:05:00;16.30;50.92
83102;SHT31;72973;51.784;4.660;2024-03-02T11:07:31;15.97;50.86
83102;SHT31;72973;51.784;4.660;2024-03-02T11:10:01;16.02;51.66
83102;SHT31;72973;51.784;4.660;2024-03-02T11:12:57;15.95;50.28
83102;SHT31;72973;51.784;4.660;2024-03-02T11:15:27;15.18;51.43
83102;SHT31;72973;51.784;4.660;2024-03-02T11:17:55;15.43;52.04
83102;SHT31;72973;51.784;4.660;2024-03-02T11:20:23;15.47;51.37
83102;SHT31;72973;51.784;4.660;2024-03-02T11:22:50;15.56;51.42
83102;SHT31;72973;51.784;4.660;2024-03-02T11:25:27;15.63;51.14
83102;SHT31;72973;51.784;4.660;2024-03-02T11:33:04;15.50;50.72
83102;SHT31;72973;51.784;4.660;2024-03-02T11:35:35;15.81;50.82
83102;SHT31;72973;51.784;4.660;2024-03-02T11:38:01;16.13;50.27
83102;SHT31;72973;51.784;4.660;2024-03-02T11:40:30;16.59;49.79
83102;SHT31;72973;51.784;4.660;2024-03-02T11:42:59;16.40;49.52
83102;SHT31;72973;51.784;4.660;2024-03-02T11:45:27;16.55;50.25
83102;SHT31;72973;51.784;4.660;2024-03-02T11:47:55;16.46;50.48
83102;SHT31;72973;51.784;4.660;2024-03-02T11:50:35;16.38;49.78
83102;SHT31;72973;51.784;4.660;2024-03-02T11:53:06;16.77;48.37
83102;SHT31;72973;51.784;4.660;2024-03-02T11:55:38;17.15;48.55
83102;SHT31;72973;51.784;4.660;2024-03-02T11:58:06;17.06;48.53
83102;SHT31;72973;51.784;4.660;2024-03-02T12:00:33;16.90;49.21
83102;SHT31;72973;51.784;4.660;2024-03-02T12:03:03;16.46;48.66
83102;SHT31;72973;51.784;4.660;2024-03-02T12:05:30;16.80;49.13
83102;SHT31;72973;51.784;4.660;2024-03-02T12:08:02;16.74;49.56
83102;SHT31;72973;51.784;4.660;2024-03-02T12:10:31;16.83;47.79
83102;SHT31;72973;51.784;4.660;2024-03-02T12:12:59;15.87;49.78
83102;SHT31;72973;51.784;4.660;2024-03-02T12:15:30;15.12;51.53
83102;SHT31;72973;51.784;4.660;2024-03-02T12:17:59;15.90;50.46
83102;SHT31;72973;51.784;4.660;2024-03-02T12:20:27;15.98;49.23
83102;SHT31;72973;51.784;4.660;2024-03-02T12:22:57;16.83;47.45
83102;SHT31;72973;51.784;4.660;2024-03-02T12:25:25;17.08;48.00
83102;SHT31;72973;51.784;4.660;2024-03-02T12:28:03;17.36;49.32
83102;SHT31;72973;51.784;4.660;2024-03-02T12:30:31;17.46;47.99
83102;SHT31;72973;51.784;4.660;2024-03-02T12:32:59;17.29;47.68
83102;SHT31;72973;51.784;4.660;2024-03-02T12:35:26;17.17;48.05
83102;SHT31;72973;51.784;4.660;2024-03-02T12:37:53;16.67;48.47
83102;SHT31;72973;51.784;4.660;2024-03-02T12:40:21;15.46;50.14
83102;SHT31;72973;51.784;4.660;2024-03-02T12:42:49;15.03;51.63
83102;SHT31;72973;51.784;4.660;2024-03-02T12:45:16;15.05;52.42
83102;SHT31;72973;51.784;4.660;2024-03-02T12:47:49;15.09;53.40
83102;SHT31;72973;51.784;4.660;2024-03-02T12:50:17;15.27;52.81
83102;SHT31;72973;51.784;4.660;2024-03-02T12:52:51;15.85;50.70
83102;SHT31;72973;51.784;4.660;2024-03-02T12:55:18;15.67;52.05
83102;SHT31;72973;51.784;4.660;2024-03-02T12:57:44;15.02;52.79
83102;SHT31;72973;51.784;4.660;2024-03-02T13:00:11;14.51;52.75
83102;SHT31;72973;51.784;4.660;2024-03-02T13:02:42;14.63;53.85
83102;SHT31;72973;51.784;4.660;2024-03-02T13:05:09;14.71;53.01
83102;SHT31;72973;51.784;4.660;2024-03-02T13:07:38;14.78;54.33
83102;SHT31;72973;51.784;4.660;2024-03-02T13:10:06;14.93;53.37
83102;SHT31;72973;51.784;4.660;2024-03-02T13:12:37;15.00;54.15
83102;SHT31;72973;51.784;4.660;2024-03-02T13:15:04;14.63;53.43
83102;SHT31;72973;51.784;4.660;2024-03-02T13:17:34;14.75;53.95
83102;SHT31;72973;51.784;4.660;2024-03-02T13:20:01;14.77;54.71
83102;SHT31;72973;51.784;4.660;2024-03-02T13:22:27;14.88;54.09
83102;SHT31;72973;51.784;4.660;2024-03-02T13:24:54;14.82;55.06
83102;SHT31;72973;51.784;4.660;2024-03-02T13:27:21;14.93;54.10
83102;SHT31;72973;51.784;4.660;2024-03-02T13:29:47;14.85;54.00
83102;SHT31;72973;51.784;4.660;2024-03-02T13:32:15;15.10;53.25
83102;SHT31;72973;51.784;4.660;2024-03-02T13:34:42;15.63;53.53
83102;SHT31;72973;51.784;4.660;2024-03-02T13:37:09;15.87;51.36
83102;SHT31;72973;51.784;4.660;2024-03-02T13:39:36;15.25;53.32
83102;SHT31;72973;51.784;4.660;2024-03-02T13:42:10;14.71;54.39
83102;SHT31;72973;51.784;4.660;2024-03-02T13:44:37;14.31;55.29
83102;SHT31;72973;51.784;4.660;2024-03-02T13:47:04;14.13;55.70
83102;SHT31;72973;51.784;4.660;2024-03-02T13:49:31;14.30;56.83
83102;SHT31;72973;51.784;4.660;2024-03-02T13:52:03;14.48;55.27
83102;SHT31;72973;51.784;4.660;2024-03-02T13:54:46;14.88;54.49
83102;SHT31;72973;51.784;4.660;2024-03-02T13:57:13;14.91;54.42
83102;SHT31;72973;51.784;4.660;2024-03-02T13:59:41;14.95;53.98
83102;SHT31;72973;51.784;4.660;2024-03-02T14:02:08;14.81;54.04
83102;SHT31;72973;51.784;4.660;2024-03-02T14:04:36;14.47;55.32
83102;SHT31;72973;51.784;4.660;2024-03-02T14:07:03;14.30;55.24
83102;SHT31;72973;51.784;4.660;2024-03-02T14:09:30;14.27;55.01
83102;SHT31;72973;51.784;4.660;2024-03-02T14:11:56;14.24;56.23
83102;SHT31;72973;51.784;4.660;2024-03-02T14:14:23;14.24;55.85
83102;SHT31;72973;51.784;4.660;2024-03-02T14:16:50;14.24;55.63
83102;SHT31;72973;51.784;4.660;2024-03-02T14:19:16;14.13;56.04
83102;SHT31;72973;51.784;4.660;2024-03-02T14:21:42;14.06;56.19
83102;SHT31;72973;51.784;4.660;2024-03-02T14:24:09;14.09;56.09
83102;SHT31;72973;51.784;4.660;2024-03-02T14:26:36;14.02;55.34
83102;SHT31;72973;51.784;4.660;2024-03-02T14:29:03;14.06;56.01
83102;SHT31;72973;51.784;4.660;2024-03-02T14:31:31;14.33;55.72
83102;SHT31;72973;51.784;4.660;2024-03-02T14:33:57;14.41;54.89
83102;SHT31;72973;51.784;4.660;2024-03-02T14:36:24;14.34;55.52
83102;SHT31;72973;51.784;4.660;2024-03-02T14:38:50;14.41;56.04
83102;SHT31;72973;51.784;4.660;2024-03-02T14:41:17;14.50;55.11
83102;SHT31;72973;51.784;4.660;2024-03-02T14:43:43;14.45;55.67
83102;SHT31;72973;51.784;4.660;2024-03-02T14:46:11;14.23;54.66
83102;SHT31;72973;51.784;4.660;2024-03-02T14:48:38;14.19;55.13
83102;SHT31;72973;51.784;4.660;2024-03-02T14:51:05;14.23;55.33
83102;SHT31;72973;51.784;4.660;2024-03-02T14:53:31;14.17;55.48
83102;SHT31;72973;51.784;4.660;2024-03-02T14:55:58;14.23;56.47
83102;SHT31;72973;51.784;4.660;2024-03-02T14:58:24;14.16;55.94
83102;SHT31;72973;51.784;4.660;2024-03-02T15:00:52;14.09;54.68
83102;SHT31;72973;51.784;4.660;2024-03-02T15:03:18;14.03;55.17
83102;SHT31;72973;51.784;4.660;2024-03-02T15:05:45;14.05;55.69
83102;SHT31;72973;51.784;4.660;2024-03-02T15:08:11;14.02;55.70
83102;SHT31;72973;51.784;4.660;2024-03-02T15:10:38;13.86;56.16
83102;SHT31;72973;51.784;4.660;2024-03-02T15:13:05;13.92;56.42
83102;SHT31;72973;51.784;4.660;2024-03-02T15:15:31;13.79;56.69
83102;SHT31;72973;51.784;4.660;2024-03-02T15:17:58;13.79;56.71
83102;SHT31;72973;51.784;4.660;2024-03-02T15:20:25;13.74;57.18
83102;SHT31;72973;51.784;4.660;2024-03-02T15:22:54;13.83;57.44
83102;SHT31;72973;51.784;4.660;2024-03-02T15:25:21;13.95;57.10
83102;SHT31;72973;51.784;4.660;2024-03-02T15:27:47;14.09;58.07
83102;SHT31;72973;51.784;4.660;2024-03-02T15:30:16;14.13;58.28
83102;SHT31;72973;51.784;4.660;2024-03-02T15:32:42;14.09;57.74
83102;SHT31;72973;51.784;4.660;2024-03-02T15:35:09;14.13;59.06
83102;SHT31;72973;51.784;4.660;2024-03-02T15:37:36;14.06;58.31
83102;SHT31;72973;51.784;4.660;2024-03-02T15:40:02;14.05;59.17
83102;SHT31;72973;51.784;4.660;2024-03-02T15:42:33;13.98;58.89
83102;SHT31;72973;51.784;4.660;2024-03-02T15:44:59;13.87;58.89
83102;SHT31;72973;51.784;4.660;2024-03-02T15:47:26;13.83;59.24
83102;SHT31;72973;51.784;4.660;2024-03-02T15:49:52;13.90;58.56
83102;SHT31;72973;51.784;4.660;2024-03-02T15:52:19;13.89;59.06